Time;durP1;ratioP1;P1;durP2;ratioP2;P2;SDS_P1;SDS_P2;PMS_P1;PMS_P2;Temp;Humidity;BMP_temperature;BMP_pressure;BME280_temperature;BME280_humidity;BME280_pressure;Samples;Min_cycle;Max_cycle;Signal;HPM_P1;HPM_P2
2021/12/20 00:00:19;;;;;;;;;;;;;;;0.52;97.11;97288.78;5076796;28;19951;-75
2021/12/20 00:02:47;;;;;;;;;;;;;;;0.45;97.26;97292.84;5095115;28;19959;-75
2021/12/20 00:05:14;;;;;;;;;;;;;;;0.41;97.62;97292.31;5076727;28;19957;-75
2021/12/20 00:07:40;;;;;;;;;;;;;;;0.43;98.05;97287.81;5094995;28;19973;-75
2021/12/20 00:10:06;;;;;;;;;;;;;;;0.48;97.92;97282.25;5094817;28;19957;-75
2021/12/20 00:12:32;;;;;;;;;;;;;;;0.52;97.31;97293.94;5094543;28;19957;-75
2021/12/20 00:14:59;;;;;;;;;;;;;;;0.47;97.60;97284.03;5076854;28;19955;-75
2021/12/20 00:17:27;;;;;;;;;;;;;;;0.45;97.75;97285.13;5094752;28;19975;-75
2021/12/20 00:19:53;;;;;;;;;;;;;;;0.49;98.03;97281.31;5094645;28;20414;-75
2021/12/20 00:22:19;;;;;;;;;;;;;;;0.49;97.71;97276.97;5094682;28;19970;-75
2021/12/20 00:24:45;;;;;;;;;;;;;;;0.53;97.84;97275.75;5094342;28;20362;-76
2021/12/20 00:27:13;;;;;;;;;;;;;;;0.57;97.83;97266.78;5093497;28;20006;-75
2021/12/20 00:29:39;;;;;;;;;;;;;;;0.63;97.67;97269.78;5094401;28;20408;-75
2021/12/20 00:32:05;;;;;;;;;;;;;;;0.65;97.20;97268.72;5076775;28;19957;-75
2021/12/20 00:34:33;;;;;;;;;;;;;;;0.68;97.15;97262.47;5094435;28;19962;-75
2021/12/20 00:37:05;;;;;;;;;;;;;;;0.69;97.03;97266.66;5094528;28;19970;-75
2021/12/20 00:40:31;;;;;;;;;;;;;;;0.67;96.47;97264.19;5094441;28;19956;-75
2021/12/20 00:42:26;;;;;;;;;;;;;;;0.63;96.67;97256.88;5072494;28;19972;-75
2021/12/20 00:44:51;;;;;;;;;;;;;;;0.64;96.93;97251.56;5094341;28;20046;-76
2021/12/20 00:47:17;;;;;;;;;;;;;;;0.68;96.78;97257.28;5094095;28;20000;-75
2021/12/20 00:49:43;;;;;;;;;;;;;;;0.68;96.62;97257.28;5094190;28;19991;-76
2021/12/20 00:52:12;;;;;;;;;;;;;;;0.67;96.86;97247.91;5093936;28;20043;-75
2021/12/20 00:54:38;;;;;;;;;;;;;;;0.69;97.06;97249.38;5093073;28;20348;-75
2021/12/20 00:57:04;;;;;;;;;;;;;;;0.74;96.92;97251.59;5094269;28;19961;-75
2021/12/20 00:59:29;;;;;;;;;;;;;;;0.77;96.81;97249.53;5094267;28;19962;-75
2021/12/20 01:01:55;;;;;;;;;;;;;;;0.81;96.41;97250.09;5093936;28;20399;-75
2021/12/20 01:04:21;;;;;;;;;;;;;;;0.82;96.30;97254.31;5093941;28;19963;-75
2021/12/20 01:06:47;;;;;;;;;;;;;;;0.78;96.16;97250.38;5093801;28;19958;-75
2021/12/20 01:09:13;;;;;;;;;;;;;;;0.76;96.36;97244.53;5093872;28;20024;-75
2021/12/20 01:11:43;;;;;;;;;;;;;;;0.75;96.26;97250.63;5094015;28;19960;-75
2021/12/20 01:14:11;;;;;;;;;;;;;;;0.76;96.39;97247.09;5093851;28;19963;-74
2021/12/20 01:16:37;;;;;;;;;;;;;;;0.77;96.42;97244.38;5093861;28;19956;-75
2021/12/20 01:19:03;;;;;;;;;;;;;;;0.80;96.42;97241.53;5093643;28;19965;-75
2021/12/20 01:21:30;;;;;;;;;;;;;;;0.83;96.44;97253.34;5094191;28;19955;-75
2021/12/20 01:23:55;;;;;;;;;;;;;;;0.85;96.27;97245.47;5093479;28;19961;-75
2021/12/20 01:26:24;;;;;;;;;;;;;;;0.86;96.19;97255.66;5093706;28;20066;-75
2021/12/20 01:28:50;;;;;;;;;;;;;;;0.88;96.00;97258.09;5093568;28;19982;-75
2021/12/20 01:31:16;;;;;;;;;;;;;;;0.89;96.26;97246.81;5058737;28;20397;-74
2021/12/20 01:33:42;;;;;;;;;;;;;;;0.90;96.19;97241.50;5075482;28;19949;-75
2021/12/20 01:36:07;;;;;;;;;;;;;;;0.92;96.50;97241.38;5093826;28;20412;-75
2021/12/20 01:38:36;;;;;;;;;;;;;;;0.93;96.20;97240.44;5093509;28;19952;-75
2021/12/20 01:41:02;;;;;;;;;;;;;;;0.94;95.89;97234.31;5093961;28;20288;-75
2021/12/20 01:43:28;;;;;;;;;;;;;;;0.97;95.94;97241.78;5093744;28;19955;-75
2021/12/20 01:45:54;;;;;;;;;;;;;;;1.00;95.98;97237.16;5093640;28;19955;-75
2021/12/20 01:48:22;;;;;;;;;;;;;;;1.02;96.03;97240.41;5093456;28;20330;-75
2021/12/20 01:53:33;;;;;;;;;;;;;;;1.05;95.86;97244.50;5093199;28;19951;-75
2021/12/20 01:55:59;;;;;;;;;;;;;;;1.07;95.90;97226.25;5075539;28;19958;-74
2021/12/20 01:58:26;;;;;;;;;;;;;;;1.07;95.87;97227.09;5093455;28;19962;-75
2021/12/20 02:03:42;;;;;;;;;;;;;;;1.08;95.71;97226.13;5079864;28;19946;-75
2021/12/20 02:08:46;;;;;;;;;;;;;;;1.10;95.48;97226.00;5097310;28;19989;-75
2021/12/20 02:11:12;;;;;;;;;;;;;;;1.04;95.43;97226.56;5079734;28;19961;-75
2021/12/20 02:13:40;;;;;;;;;;;;;;;0.98;95.83;97222.75;5096947;28;20316;-75
2021/12/20 02:16:06;;;;;;;;;;;;;;;0.97;96.02;97221.94;5097261;28;19958;-75
2021/12/20 02:18:33;;;;;;;;;;;;;;;0.98;96.25;97217.56;5096870;28;19955;-75
2021/12/20 02:20:59;;;;;;;;;;;;;;;0.99;96.21;97219.22;5078900;28;19959;-76
2021/12/20 02:23:26;;;;;;;;;;;;;;;1.01;96.04;97220.72;5096366;28;19962;-75
2021/12/20 02:25:51;;;;;;;;;;;;;;;1.05;96.06;97220.41;5078684;28;20317;-75
2021/12/20 02:28:19;;;;;;;;;;;;;;;1.06;96.07;97222.88;5096629;28;20058;-75
2021/12/20 02:38:46;;;;;;;;;;;;;;;1.10;95.65;97211.31;5097000;28;20349;-75
2021/12/20 02:41:14;;;;;;;;;;;;;;;1.05;95.47;97221.25;5095803;28;19955;-76
2021/12/20 02:43:42;;;;;;;;;;;;;;;1.04;95.77;97216.22;5096582;28;19956;-75
2021/12/20 02:46:25;;;;;;;;;;;;;;;1.04;95.93;97213.63;5078227;28;20410;-75
2021/12/20 02:48:51;;;;;;;;;;;;;;;1.05;95.99;97204.91;5096218;28;19999;-75
2021/12/20 02:51:17;;;;;;;;;;;;;;;1.06;95.95;97207.38;5096199;28;20055;-75
2021/12/20 02:53:43;;;;;;;;;;;;;;;1.08;95.81;97209.81;5096373;28;20091;-75
2021/12/20 02:56:09;;;;;;;;;;;;;;;1.10;95.80;97202.75;5096372;28;19957;-75
2021/12/20 02:58:35;;;;;;;;;;;;;;;1.11;95.53;97191.44;5096407;28;20004;-75
2021/12/20 03:01:00;;;;;;;;;;;;;;;1.11;95.31;97194.84;5096314;28;20398;-76
2021/12/20 03:03:29;;;;;;;;;;;;;;;1.08;95.25;97195.13;5096075;28;19954;-75
2021/12/20 03:05:55;;;;;;;;;;;;;;;1.07;95.32;97201.25;5096165;28;19961;-76
2021/12/20 03:08:22;;;;;;;;;;;;;;;1.09;95.40;97193.34;5095960;28;19975;-75
2021/12/20 03:10:48;;;;;;;;;;;;;;;1.09;95.15;97191.59;5078326;28;19951;-76
2021/12/20 03:13:14;;;;;;;;;;;;;;;1.09;95.15;97194.19;5096063;28;20318;-76
2021/12/20 03:15:41;;;;;;;;;;;;;;;1.10;95.20;97184.66;5096075;28;19979;-76
2021/12/20 03:18:07;;;;;;;;;;;;;;;1.11;95.25;97183.69;5094846;28;19959;-75
2021/12/20 03:20:33;;;;;;;;;;;;;;;1.13;95.01;97182.59;5095779;28;19979;-76
2021/12/20 03:22:59;;;;;;;;;;;;;;;1.13;94.89;97174.03;5096180;28;19960;-75
2021/12/20 03:25:25;;;;;;;;;;;;;;;1.13;94.90;97184.38;5095747;28;19968;-75
2021/12/20 03:27:51;;;;;;;;;;;;;;;1.14;95.08;97186.03;5095639;28;20012;-76
2021/12/20 03:30:17;;;;;;;;;;;;;;;1.14;95.14;97184.25;5095398;28;20318;-75
2021/12/20 03:32:43;;;;;;;;;;;;;;;1.14;95.14;97178.25;5095608;28;19952;-75
2021/12/20 03:35:12;;;;;;;;;;;;;;;1.15;95.13;97180.69;5095424;28;20416;-76
2021/12/20 03:37:38;;;;;;;;;;;;;;;1.09;95.00;97181.28;5077252;28;20325;-75
2021/12/20 03:40:04;;;;;;;;;;;;;;;1.02;95.23;97185.34;5095596;28;19953;-75
2021/12/20 03:42:31;;;;;;;;;;;;;;;0.97;95.33;97190.94;5095245;28;20422;-75
2021/12/20 03:44:57;;;;;;;;;;;;;;;0.94;95.61;97191.19;5095346;28;20408;-75
2021/12/20 03:47:23;;;;;;;;;;;;;;;0.94;95.81;97185.22;5095041;28;19952;-75
2021/12/20 03:49:49;;;;;;;;;;;;;;;0.97;95.75;97188.38;5095382;28;20061;-76
2021/12/20 03:52:17;;;;;;;;;;;;;;;0.97;95.74;97190.94;5095070;28;20044;-75
2021/12/20 03:54:43;;;;;;;;;;;;;;;0.96;95.52;97186.72;5095323;28;20458;-76
2021/12/20 03:57:09;;;;;;;;;;;;;;;0.94;95.82;97186.03;5095081;28;19957;-75
2021/12/20 03:59:35;;;;;;;;;;;;;;;0.93;95.92;97188.78;5095117;28;20048;-75
2021/12/20 04:02:01;;;;;;;;;;;;;;;0.92;95.87;97184.56;5076937;28;19988;-75
2021/12/20 04:04:27;;;;;;;;;;;;;;;0.94;96.08;97191.19;5095436;28;19958;-75
2021/12/20 04:06:56;;;;;;;;;;;;;;;0.95;96.06;97185.09;5095149;28;19974;-75
2021/12/20 04:09:22;;;;;;;;;;;;;;;0.99;96.00;97189.03;5095326;28;19975;-76
2021/12/20 04:11:47;;;;;;;;;;;;;;;1.02;95.76;97186.16;5094876;28;19971;-75
2021/12/20 04:14:13;;;;;;;;;;;;;;;1.03;95.56;97187.00;5076651;28;20402;-75
2021/12/20 04:16:39;;;;;;;;;;;;;;;1.04;95.37;97192.97;5094837;28;19963;-75
2021/12/20 04:19:05;;;;;;;;;;;;;;;1.05;95.34;97198.00;5094803;28;19951;-76
2021/12/20 04:21:31;;;;;;;;;;;;;;;1.07;95.32;97187.50;5094896;28;19961;-75
2021/12/20 04:23:57;;;;;;;;;;;;;;;1.08;95.27;97189.97;5094780;28;20387;-75
2021/12/20 04:26:23;;;;;;;;;;;;;;;1.09;95.22;97189.03;5094683;28;19962;-75
2021/12/20 04:28:49;;;;;;;;;;;;;;;1.11;95.04;97192.25;5094739;28;20052;-75
2021/12/20 04:31:15;;;;;;;;;;;;;;;1.11;94.83;97189.66;5094492;28;19972;-75
2021/12/20 04:33:41;;;;;;;;;;;;;;;1.12;94.79;97188.72;5059405;28;19956;-75
2021/12/20 04:36:07;;;;;;;;;;;;;;;1.12;94.85;97193.09;5094512;28;19971;-75
2021/12/20 04:38:33;;;;;;;;;;;;;;;1.13;94.59;97194.72;5094349;28;20049;-75
2021/12/20 04:41:01;;;;;;;;;;;;;;;1.13;94.71;97189.53;5094206;28;19961;-75
2021/12/20 04:43:27;;;;;;;;;;;;;;;1.12;94.62;97188.72;5094604;28;19969;-75
2021/12/20 04:45:53;;;;;;;;;;;;;;;1.14;94.68;97188.59;5094122;28;20390;-75
2021/12/20 04:48:19;;;;;;;;;;;;;;;1.13;94.66;97190.34;5076250;28;20019;-75
2021/12/20 04:50:45;;;;;;;;;;;;;;;1.11;94.62;97191.44;5094097;28;19949;-75
2021/12/20 04:53:11;;;;;;;;;;;;;;;1.11;94.62;97192.25;5076104;28;19958;-75
2021/12/20 04:55:37;;;;;;;;;;;;;;;1.11;94.86;97191.44;5093985;28;20087;-76
2021/12/20 04:58:05;;;;;;;;;;;;;;;1.12;94.85;97190.50;5094012;28;20423;-75
2021/12/20 05:00:34;;;;;;;;;;;;;;;1.13;94.84;97189.53;5093283;28;20357;-75
2021/12/20 05:03:00;;;;;;;;;;;;;;;1.12;94.79;97193.91;5094062;28;19956;-76
2021/12/20 05:05:28;;;;;;;;;;;;;;;1.13;94.84;97199.88;5093739;28;19960;-75
2021/12/20 05:07:55;;;;;;;;;;;;;;;1.12;94.75;97195.69;5093884;28;19949;-76
2021/12/20 05:10:26;;;;;;;;;;;;;;;1.12;94.70;97195.69;5093590;28;19968;-76
2021/12/20 05:12:53;;;;;;;;;;;;;;;1.13;94.83;97197.28;5093884;28;19951;-76
2021/12/20 05:15:19;;;;;;;;;;;;;;;1.13;94.83;97189.53;5093882;28;20438;-75
2021/12/20 05:17:45;;;;;;;;;;;;;;;1.14;94.61;97189.41;5092589;28;19956;-75
2021/12/20 05:20:11;;;;;;;;;;;;;;;1.15;94.57;97200.56;5093562;28;19958;-77
2021/12/20 05:22:37;;;;;;;;;;;;;;;1.15;94.85;97190.22;5093895;28;19949;-75
2021/12/20 05:25:03;;;;;;;;;;;;;;;1.15;94.74;97192.81;5093541;28;19953;-77
2021/12/20 05:27:29;;;;;;;;;;;;;;;1.15;94.73;97197.97;5093599;28;19959;-75
2021/12/20 05:29:59;;;;;;;;;;;;;;;1.15;94.84;97193.59;5093625;28;19972;-76
2021/12/20 05:32:25;;;;;;;;;;;;;;;1.15;94.79;97192.81;5093411;28;19957;-75
2021/12/20 05:34:51;;;;;;;;;;;;;;;1.13;94.92;97199.88;5075654;28;19957;-75
2021/12/20 05:37:20;;;;;;;;;;;;;;;1.12;94.87;97199.06;5093433;28;19958;-76
2021/12/20 05:39:46;;;;;;;;;;;;;;;1.06;94.98;97212.53;5093830;28;19960;-76
2021/12/20 05:42:12;;;;;;;;;;;;;;;1.02;95.17;97206.81;5097615;28;19952;-75
2021/12/20 05:44:38;;;;;;;;;;;;;;;1.03;95.56;97212.81;5097708;28;20420;-75
2021/12/20 05:47:04;;;;;;;;;;;;;;;1.03;95.57;97207.66;5097892;28;19958;-76
2021/12/20 05:49:31;;;;;;;;;;;;;;;1.06;95.67;97214.31;5097389;28;19972;-75
2021/12/20 05:52:03;;;;;;;;;;;;;;;1.08;95.77;97209.81;5097429;28;19953;-75
2021/12/20 05:54:30;;;;;;;;;;;;;;;1.10;95.73;97206.13;5097143;28;19984;-75
2021/12/20 05:56:56;;;;;;;;;;;;;;;1.12;95.84;97206.00;5097574;28;19982;-75
2021/12/20 05:59:22;;;;;;;;;;;;;;;1.06;95.44;97212.53;5079498;28;20397;-75
2021/12/20 06:01:48;;;;;;;;;;;;;;;1.01;95.71;97215.53;5097348;28;20005;-75
2021/12/20 06:04:14;;;;;;;;;;;;;;;0.99;95.95;97221.81;5097321;28;19954;-76
2021/12/20 06:06:40;;;;;;;;;;;;;;;0.99;96.14;97214.06;5079343;28;19967;-75
2021/12/20 06:09:06;;;;;;;;;;;;;;;1.01;96.25;97223.28;5097168;28;19978;-75
2021/12/20 06:11:32;;;;;;;;;;;;;;;1.02;95.95;97227.50;5097234;28;19975;-75
2021/12/20 06:13:58;;;;;;;;;;;;;;;0.93;95.76;97218.00;5096987;28;19970;-75
2021/12/20 06:16:24;;;;;;;;;;;;;;;0.87;96.04;97233.22;5079131;28;20448;-75
2021/12/20 06:18:51;;;;;;;;;;;;;;;0.83;96.64;97227.53;5097167;28;20307;-75
2021/12/20 06:21:18;;;;;;;;;;;;;;;0.88;96.68;97227.09;5096926;28;19968;-75
2021/12/20 06:23:46;;;;;;;;;;;;;;;0.91;96.72;97217.31;5096767;28;19951;-75
2021/12/20 06:26:12;;;;;;;;;;;;;;;0.96;96.73;97233.19;5097196;28;20006;-75
2021/12/20 06:28:41;;;;;;;;;;;;;;;0.99;96.78;97224.38;5097153;28;19961;-75
2021/12/20 06:31:07;;;;;;;;;;;;;;;1.02;96.63;97227.50;5096727;28;20404;-75
2021/12/20 06:33:33;;;;;;;;;;;;;;;1.06;96.53;97222.88;5096531;28;19967;-75
2021/12/20 06:35:59;;;;;;;;;;;;;;;1.08;96.11;97226.13;5096782;28;19959;-75
2021/12/20 06:38:25;;;;;;;;;;;;;;;1.10;95.73;97233.75;5096831;28;20344;-75
2021/12/20 06:40:52;;;;;;;;;;;;;;;1.05;95.78;97234.16;5078579;28;20411;-75
2021/12/20 06:43:18;;;;;;;;;;;;;;;1.04;95.86;97226.56;5096600;28;19958;-76
2021/12/20 06:45:45;;;;;;;;;;;;;;;1.04;95.81;97223.97;5096488;28;19954;-75
2021/12/20 06:48:10;;;;;;;;;;;;;;;1.00;95.70;97231.16;5095200;28;19965;-76
2021/12/20 06:50:36;;;;;;;;;;;;;;;0.97;96.29;97227.09;5096368;28;19973;-75
2021/12/20 06:53:05;;;;;;;;;;;;;;;0.98;96.69;97223.56;5094979;28;20432;-75
2021/12/20 06:55:32;;;;;;;;;;;;;;;0.94;96.85;97229.94;5096766;28;19983;-75
2021/12/20 06:57:58;;;;;;;;;;;;;;;0.96;96.91;97228.03;5096055;28;19988;-75
2021/12/20 07:00:24;;;;;;;;;;;;;;;0.96;96.78;97222.88;5096263;28;20440;-75
2021/12/20 07:02:50;;;;;;;;;;;;;;;0.95;96.48;97231.59;5096107;28;19968;-75
2021/12/20 07:05:16;;;;;;;;;;;;;;;0.93;96.55;97224.94;5096166;28;20387;-75
2021/12/20 07:07:42;;;;;;;;;;;;;;;0.89;96.88;97232.13;5096297;28;19956;-75
2021/12/20 07:10:08;;;;;;;;;;;;;;;0.90;97.17;97225.19;5096069;28;19974;-75
2021/12/20 07:12:38;;;;;;;;;;;;;;;0.93;97.33;97228.34;5096111;28;19960;-75
2021/12/20 07:15:05;;;;;;;;;;;;;;;0.97;97.09;97227.09;5096052;28;19959;-75
2021/12/20 07:17:31;;;;;;;;;;;;;;;0.97;96.94;97228.88;5096046;28;19966;-75
2021/12/20 07:19:58;;;;;;;;;;;;;;;0.98;97.01;97227.91;5095761;28;19996;-76
2021/12/20 07:22:24;;;;;;;;;;;;;;;1.01;96.98;97227.66;5095884;28;19968;-75
2021/12/20 07:24:50;;;;;;;;;;;;;;;1.04;97.01;97231.72;5077792;28;19957;-75
2021/12/20 07:27:19;;;;;;;;;;;;;;;1.06;96.75;97237.56;5095642;28;19960;-76
2021/12/20 07:29:46;;;;;;;;;;;;;;;1.09;96.60;97234.69;5095602;28;19989;-76
2021/12/20 07:32:12;;;;;;;;;;;;;;;1.11;96.49;97227.63;5095463;28;19950;-75
2021/12/20 07:34:40;;;;;;;;;;;;;;;1.12;96.41;97237.81;5095643;28;19980;-76
2021/12/20 07:37:06;;;;;;;;;;;;;;;1.14;96.19;97246.25;5095660;28;20403;-75
2021/12/20 07:39:33;;;;;;;;;;;;;;;1.10;95.95;97239.72;5077428;28;19959;-75
2021/12/20 07:41:59;;;;;;;;;;;;;;;1.07;96.30;97252.94;5077655;28;19950;-75
2021/12/20 07:44:25;;;;;;;;;;;;;;;1.05;96.29;97251.41;5095315;28;19959;-77
2021/12/20 07:46:51;;;;;;;;;;;;;;;1.03;96.62;97251.56;5095247;28;19952;-75
2021/12/20 07:49:17;;;;;;;;;;;;;;;1.03;96.65;97246.41;5095280;28;19982;-76
2021/12/20 07:51:43;;;;;;;;;;;;;;;1.04;97.01;97252.38;5095372;28;20054;-75
2021/12/20 07:54:09;;;;;;;;;;;;;;;1.06;96.66;97259.03;5095378;28;20029;-75
2021/12/20 07:56:35;;;;;;;;;;;;;;;1.07;96.74;97242.59;5077104;28;19960;-75
2021/12/20 07:59:01;;;;;;;;;;;;;;;1.11;96.59;97253.44;5095383;28;19973;-76
2021/12/20 08:01:27;;;;;;;;;;;;;;;1.14;96.61;97255.78;5095107;28;19956;-75
2021/12/20 08:03:54;;;;;;;;;;;;;;;1.17;96.66;97250.31;5094881;28;19961;-75
2021/12/20 08:06:20;;;;;;;;;;;;;;;1.21;96.66;97242.13;5095102;28;19953;-76
2021/12/20 08:08:46;;;;;;;;;;;;;;;1.24;96.45;97247.97;5094636;28;20440;-76
2021/12/20 08:11:12;;;;;;;;;;;;;;;1.28;96.63;97252.75;5095160;28;19958;-75
2021/12/20 08:13:44;;;;;;;;;;;;;;;1.29;95.94;97256.94;5094820;28;19954;-75
2021/12/20 08:16:14;;;;;;;;;;;;;;;1.26;96.09;97264.16;5095639;28;19951;-76
2021/12/20 08:18:40;;;;;;;;;;;;;;;1.24;96.47;97246.22;5094998;28;19956;-76
2021/12/20 08:21:07;;;;;;;;;;;;;;;1.27;96.77;97253.69;5094477;28;19952;-75
2021/12/20 08:23:36;;;;;;;;;;;;;;;1.28;96.70;97257.09;5094802;28;19967;-76
2021/12/20 08:26:02;;;;;;;;;;;;;;;1.28;96.73;97264.84;5094770;28;19964;-75
2021/12/20 08:28:28;;;;;;;;;;;;;;;1.27;96.34;97263.22;5094460;28;19976;-76
2021/12/20 08:30:54;;;;;;;;;;;;;;;1.27;96.49;97263.22;5094833;28;19988;-76
2021/12/20 08:33:21;;;;;;;;;;;;;;;1.26;96.30;97265.00;5094794;28;19959;-76
2021/12/20 08:35:49;;;;;;;;;;;;;;;1.28;96.41;97265.69;5092849;28;19953;-76
2021/12/20 08:38:17;;;;;;;;;;;;;;;1.32;96.32;97259.25;5094494;28;19958;-76
2021/12/20 08:40:43;;;;;;;;;;;;;;;1.36;96.13;97263.19;5094262;28;19956;-76
2021/12/20 08:43:09;;;;;;;;;;;;;;;1.39;95.82;97264.69;5094293;28;20304;-75
2021/12/20 08:45:35;;;;;;;;;;;;;;;1.41;95.84;97273.94;5094110;28;19955;-76
2021/12/20 08:48:00;;;;;;;;;;;;;;;1.45;95.50;97271.06;5094331;28;19949;-75
2021/12/20 08:50:26;;;;;;;;;;;;;;;1.50;95.85;97261.13;5094188;28;19976;-75
2021/12/20 08:52:53;;;;;;;;;;;;;;;1.54;96.02;97260.69;5094022;28;19958;-77
2021/12/20 08:55:19;;;;;;;;;;;;;;;1.58;95.92;97261.25;5093696;28;20055;-76
2021/12/20 08:57:46;;;;;;;;;;;;;;;1.62;95.80;97267.75;5094058;28;19958;-76
2021/12/20 09:00:17;;;;;;;;;;;;;;;1.66;95.69;97263.09;5093905;28;19978;-76
2021/12/20 09:02:42;;;;;;;;;;;;;;;1.70;95.97;97270.47;5093981;28;19960;-76
2021/12/20 09:05:09;;;;;;;;;;;;;;;1.74;95.75;97273.56;5092771;28;19953;-75
2021/12/20 09:07:36;;;;;;;;;;;;;;;1.77;95.68;97270.69;5094136;28;19959;-76
2021/12/20 09:10:02;;;;;;;;;;;;;;;1.80;95.58;97268.63;5093571;28;19971;-76
2021/12/20 09:12:28;;;;;;;;;;;;;;;1.86;95.71;97276.78;5094315;28;19958;-75
2021/12/20 09:14:54;;;;;;;;;;;;;;;1.91;95.58;97272.00;5093028;28;19952;-75
2021/12/20 09:17:20;;;;;;;;;;;;;;;1.93;95.55;97276.09;5093717;28;20320;-76
2021/12/20 09:19:46;;;;;;;;;;;;;;;1.97;95.69;97284.34;5093917;28;19956;-76
2021/12/20 09:22:12;;;;;;;;;;;;;;;1.98;95.35;97286.00;5093526;28;19963;-75
2021/12/20 09:24:39;;;;;;;;;;;;;;;1.97;95.18;97276.59;5094048;28;19964;-76
2021/12/20 09:27:06;;;;;;;;;;;;;;;1.98;95.17;97281.63;5093732;28;19948;-76
2021/12/20 09:29:33;;;;;;;;;;;;;;;2.01;94.98;97272.75;5093511;28;20028;-76
2021/12/20 09:31:59;;;;;;;;;;;;;;;2.05;94.86;97281.88;5093916;28;19960;-76
2021/12/20 09:34:25;;;;;;;;;;;;;;;2.08;94.86;97279.00;5093704;28;20453;-76
2021/12/20 09:36:54;;;;;;;;;;;;;;;2.13;94.97;97270.81;5093565;28;19953;-76
2021/12/20 09:39:21;;;;;;;;;;;;;;;2.18;95.45;97284.13;5093660;28;19961;-76
2021/12/20 09:44:18;;;;;;;;;;;;;;;2.26;95.69;97268.69;5093953;28;19965;-76
2021/12/20 09:46:44;;;;;;;;;;;;;;;2.29;95.93;97273.59;5092431;28;19951;-76
2021/12/20 09:49:10;;;;;;;;;;;;;;;2.31;95.79;97279.44;5093354;28;19981;-76
2021/12/20 09:51:37;;;;;;;;;;;;;;;2.33;96.20;97280.09;5093428;28;19952;-76
2021/12/20 09:54:04;;;;;;;;;;;;;;;2.37;96.46;97281.44;5093367;28;20004;-76
2021/12/20 09:56:31;;;;;;;;;;;;;;;2.40;96.86;97280.34;5093303;28;19966;-76
2021/12/20 09:58:58;;;;;;;;;;;;;;;2.50;98.14;97280.25;5093568;28;20348;-76
2021/12/20 10:01:25;;;;;;;;;;;;;;;2.57;96.84;97274.34;5093320;28;20321;-76
2021/12/20 10:03:55;;;;;;;;;;;;;;;2.59;96.59;97281.97;5093444;28;20414;-76
2021/12/20 10:06:21;;;;;;;;;;;;;;;2.59;95.87;97281.97;5093272;28;19954;-76
2021/12/20 10:08:52;;;;;;;;;;;;;;;2.60;96.00;97283.59;5093095;28;19953;-76
2021/12/20 10:11:22;;;;;;;;;;;;;;;2.61;96.23;97270.50;5093162;28;19978;-75
2021/12/20 10:13:48;;;;;;;;;;;;;;;2.94;100.00;97277.75;5075418;28;19946;-75
2021/12/20 10:16:22;;;;;;;;;;;;;;;3.67;100.00;97280.06;5075124;28;19961;-75
2021/12/20 10:18:48;;;;;;;;;;;;;;;4.23;100.00;97270.09;5091960;28;20405;-77
2021/12/20 10:21:14;;;;;;;;;;;;;;;4.26;93.72;97257.63;5093005;28;19959;-77
2021/12/20 10:23:42;;;;;;;;;;;;;;;4.09;91.26;97260.31;5092864;28;19967;-77
2021/12/20 10:26:13;;;;;;;;;;;;;;;3.88;91.19;97260.72;5093446;28;19958;-77
2021/12/20 10:28:39;;;;;;;;;;;;;;;3.72;91.61;97262.25;5096480;28;19949;-78
2021/12/20 10:31:16;;;;;;;;;;;;;;;3.61;91.76;97259.91;5096749;28;19972;-77
2021/12/20 10:33:50;;;;;;;;;;;;;;;3.49;92.38;97261.97;5096513;28;19952;-78
2021/12/20 10:36:15;;;;;;;;;;;;;;;3.39;92.23;97269.84;5096587;28;19951;-78
2021/12/20 10:38:43;;;;;;;;;;;;;;;3.28;92.45;97264.09;5095607;28;20375;-77
2021/12/20 10:41:14;;;;;;;;;;;;;;;3.20;93.43;97259.66;5096237;28;19948;-75
2021/12/20 10:43:48;;;;;;;;;;;;;;;3.16;93.88;97250.56;5096216;28;19955;-78
2021/12/20 10:46:21;;;;;;;;;;;;;;;3.11;94.13;97251.03;5097036;28;19973;-77
2021/12/20 10:48:49;;;;;;;;;;;;;;;3.08;94.06;97250.50;5096252;28;19960;-77
2021/12/20 10:51:16;;;;;;;;;;;;;;;3.05;94.31;97247.25;5096273;28;19996;-77
2021/12/20 10:53:56;;;;;;;;;;;;;;;3.06;94.66;97255.81;5096208;28;20346;-77
2021/12/20 10:56:23;;;;;;;;;;;;;;;3.05;94.83;97246.44;5096700;28;19962;-77
2021/12/20 10:58:49;;;;;;;;;;;;;;;3.04;95.58;97253.41;5096190;28;19957;-78
2021/12/20 11:04:13;;;;;;;;;;;;;;;3.05;93.09;97249.84;5065615;28;19947;-78
2021/12/20 11:09:26;;;;;;;;;;;;;;;3.06;93.03;97240.28;5096419;28;19958;-78
2021/12/20 11:11:59;;;;;;;;;;;;;;;3.00;91.93;97243.47;5096507;28;19954;-78
2021/12/20 11:14:34;;;;;;;;;;;;;;;2.98;92.78;97245.41;5096031;28;19964;-78
2021/12/20 11:17:01;;;;;;;;;;;;;;;3.02;94.34;97244.97;5095795;28;19965;-78
2021/12/20 11:20:05;;;;;;;;;;;;;;;3.15;96.86;97247.16;5095763;28;19957;-79
2021/12/20 11:22:32;;;;;;;;;;;;;;;3.48;92.14;97243.97;5013814;28;19956;-78
2021/12/20 11:24:58;;;;;;;;;;;;;;;3.40;90.40;97242.97;5013584;28;19953;-77
2021/12/20 11:27:25;;;;;;;;;;;;;;;3.32;91.25;97245.50;5042665;28;20014;-79
2021/12/20 11:29:53;;;;;;;;;;;;;;;3.27;91.59;97242.53;5094072;28;19973;-77
2021/12/20 11:32:22;;;;;;;;;;;;;;;3.29;92.07;97237.19;5095694;28;20322;-78
2021/12/20 11:34:48;;;;;;;;;;;;;;;3.33;92.84;97235.94;5096061;28;19955;-78
2021/12/20 11:37:18;;;;;;;;;;;;;;;3.38;92.25;97236.28;5095828;28;19966;-78
2021/12/20 11:39:45;;;;;;;;;;;;;;;3.43;91.87;97234.06;5094860;28;19954;-80
2021/12/20 11:42:14;;;;;;;;;;;;;;;3.44;90.69;97230.47;5095881;28;19952;-77
2021/12/20 11:44:41;;;;;;;;;;;;;;;3.45;90.57;97237.31;5095470;28;19954;-77
2021/12/20 11:47:21;;;;;;;;;;;;;;;3.50;90.97;97234.25;5095161;28;20352;-76
2021/12/20 11:49:59;;;;;;;;;;;;;;;3.53;90.54;97231.34;5077049;28;19981;-77
2021/12/20 11:52:29;;;;;;;;;;;;;;;3.50;89.80;97235.06;5068549;28;20455;-78
2021/12/20 11:54:55;;;;;;;;;;;;;;;3.47;90.26;97237.97;5095185;28;20318;-78
2021/12/20 11:57:27;;;;;;;;;;;;;;;3.48;88.65;97244.78;5095592;28;20022;-78
2021/12/20 11:59:54;;;;;;;;;;;;;;;3.93;100.00;97237.72;5095178;28;19962;-78
2021/12/20 12:02:25;;;;;;;;;;;;;;;4.33;92.12;97228.44;5095097;28;19950;-78
2021/12/20 12:04:54;;;;;;;;;;;;;;;4.38;89.39;97232.16;5095027;28;20391;-78
2021/12/20 12:07:22;;;;;;;;;;;;;;;4.25;84.69;97232.63;5076729;28;20429;-78
2021/12/20 12:09:57;;;;;;;;;;;;;;;4.05;83.51;97229.50;5076995;28;19956;-78
2021/12/20 12:12:24;;;;;;;;;;;;;;;3.87;84.38;97233.94;5094661;28;19949;-78
2021/12/20 12:15:02;;;;;;;;;;;;;;;3.74;85.99;97231.78;5094800;28;19950;-78
2021/12/20 12:17:47;;;;;;;;;;;;;;;3.61;86.15;97233.97;5094643;28;19952;-79
2021/12/20 12:20:16;;;;;;;;;;;;;;;3.52;86.53;97227.13;5095014;28;20422;-78
2021/12/20 12:22:42;;;;;;;;;;;;;;;3.49;87.43;97224.88;5094733;28;19952;-77
2021/12/20 12:25:12;;;;;;;;;;;;;;;3.47;87.73;97216.41;5094390;28;19957;-78
2021/12/20 12:27:43;;;;;;;;;;;;;;;3.41;87.57;97223.03;5094306;28;19965;-77
2021/12/20 12:30:12;;;;;;;;;;;;;;;3.36;86.61;97226.09;5094621;28;19965;-81
2021/12/20 12:32:47;;;;;;;;;;;;;;;3.27;86.13;97228.75;5094417;28;19950;-78
2021/12/20 12:35:32;;;;;;;;;;;;;;;3.10;85.27;97222.66;5076325;28;19960;-78
2021/12/20 12:38:11;;;;;;;;;;;;;;;3.01;86.20;97230.38;5095265;28;19953;-79
2021/12/20 12:40:37;;;;;;;;;;;;;;;2.98;87.17;97228.09;5077672;28;19957;-78
2021/12/20 12:43:03;;;;;;;;;;;;;;;3.02;87.72;97223.41;5095745;28;19962;-79
2021/12/20 12:45:48;;;;;;;;;;;;;;;3.07;88.21;97223.78;5094276;28;19955;-78
2021/12/20 12:48:40;;;;;;;;;;;;;;;3.16;88.01;97224.66;5094398;28;19958;-78
2021/12/20 12:51:06;;;;;;;;;;;;;;;3.22;86.88;97226.63;5089226;28;19969;-79
2021/12/20 12:53:38;;;;;;;;;;;;;;;3.21;85.34;97223.25;5075840;28;19956;-79
2021/12/20 12:56:22;;;;;;;;;;;;;;;3.18;82.47;97223.53;5094368;28;19957;-79
2021/12/20 12:59:08;;;;;;;;;;;;;;;3.16;81.65;97219.47;5094988;28;19962;-78
2021/12/20 13:01:35;;;;;;;;;;;;;;;3.15;81.86;97220.41;5075789;28;19977;-79
2021/12/20 13:04:01;;;;;;;;;;;;;;;3.15;82.56;97210.88;5093996;28;20012;-79
2021/12/20 13:06:27;;;;;;;;;;;;;;;3.14;83.43;97217.03;5093797;28;20003;-81
2021/12/20 13:08:53;;;;;;;;;;;;;;;3.12;83.18;97221.53;5093464;28;19961;-78
2021/12/20 13:11:22;;;;;;;;;;;;;;;3.14;85.24;97211.84;5093581;28;19966;-78
2021/12/20 13:13:56;;;;;;;;;;;;;;;3.19;85.23;97211.38;5093447;28;19968;-78
2021/12/20 13:16:26;;;;;;;;;;;;;;;3.20;85.17;97216.41;5078979;28;20066;-78
2021/12/20 13:18:57;;;;;;;;;;;;;;;3.25;84.85;97216.78;5075642;28;19988;-78
2021/12/20 13:21:36;;;;;;;;;;;;;;;3.30;84.60;97215.47;5093663;28;19968;-78
2021/12/20 13:24:12;;;;;;;;;;;;;;;3.35;85.14;97213.25;5075677;28;19952;-77